Time;durP1;ratioP1;P1;durP2;ratioP2;P2;SDS_P1;SDS_P2;PMS_P1;PMS_P2;Temp;Humidity;BMP_temperature;BMP_pressure;BME280_temperature;BME280_humidity;BME280_pressure;Samples;Min_cycle;Max_cycle;Signal;HPM_P1;HPM_P2
2021/11/03 00:01:15;;;;;;;10.55;9.65;;;16.00;86.00;;;;;;4223671;28;20047;-59
2021/11/03 00:03:38;;;;;;;10.30;9.30;;;16.00;85.90;;;;;;4223814;28;20067;-61
2021/11/03 00:06:01;;;;;;;11.50;10.38;;;16.00;86.10;;;;;;4224461;28;20136;-61
2021/11/03 00:08:27;;;;;;;10.35;9.48;;;15.90;86.10;;;;;;4224573;28;20052;-61
2021/11/03 00:10:51;;;;;;;10.57;9.60;;;15.90;86.20;;;;;;4224498;28;20067;-60
2021/11/03 00:13:17;;;;;;;10.65;9.65;;;15.90;86.20;;;;;;4224705;28;20401;-61
2021/11/03 00:15:39;;;;;;;10.40;9.40;;;15.90;86.10;;;;;;4190997;28;20788;-61
2021/11/03 00:18:02;;;;;;;11.45;10.30;;;15.90;86.30;;;;;;4190701;28;20472;-61
2021/11/03 00:20:24;;;;;;;9.80;8.90;;;15.90;86.50;;;;;;4191652;28;20499;-61
2021/11/03 00:22:46;;;;;;;10.95;9.82;;;15.90;86.50;;;;;;4191019;28;20051;-60
2021/11/03 00:25:09;;;;;;;9.93;9.02;;;15.90;87.20;;;;;;4197003;28;20052;-61
2021/11/03 00:27:31;;;;;;;10.00;9.20;;;15.90;86.50;;;;;;4192267;28;20056;-61
2021/11/03 00:29:54;;;;;;;10.20;9.15;;;15.90;86.50;;;;;;4207544;28;20066;-61
2021/11/03 00:32:16;;;;;;;10.02;9.07;;;15.90;86.40;;;;;;4208185;28;20425;-61
2021/11/03 00:34:39;;;;;;;9.95;9.07;;;15.90;86.50;;;;;;4206805;28;20494;-61
2021/11/03 00:37:01;;;;;;;9.48;8.70;;;15.90;86.60;;;;;;4224267;28;20063;-61
2021/11/03 00:39:26;;;;;;;9.35;8.52;;;15.90;86.60;;;;;;4208697;28;20578;-61
2021/11/03 00:41:48;;;;;;;9.02;8.23;;;15.90;86.60;;;;;;4205447;28;20154;-60
2021/11/03 00:44:10;;;;;;;9.65;8.77;;;15.90;86.60;;;;;;4207617;28;20056;-61
2021/11/03 00:46:33;;;;;;;9.45;8.65;;;15.80;86.50;;;;;;4207290;28;20176;-61
2021/11/03 00:48:56;;;;;;;9.25;8.40;;;15.80;86.40;;;;;;4224061;28;20058;-61
2021/11/03 00:51:18;;;;;;;9.40;8.52;;;15.80;86.60;;;;;;4207574;28;20079;-61
2021/11/03 00:53:45;;;;;;;9.80;8.80;;;15.80;86.60;;;;;;4203858;28;20824;-60
2021/11/03 00:56:07;;;;;;;9.00;8.20;;;15.80;86.50;;;;;;4222896;28;20044;-61
2021/11/03 00:58:30;;;;;;;8.80;8.00;;;15.80;86.60;;;;;;4209205;28;20048;-61
2021/11/03 01:00:53;;;;;;;8.13;7.38;;;15.80;86.90;;;;;;4208318;28;20044;-61
2021/11/03 01:03:16;;;;;;;8.38;7.68;;;15.80;87.10;;;;;;4224001;28;20497;-60
2021/11/03 01:05:40;;;;;;;7.90;7.20;;;15.80;86.80;;;;;;4206633;28;20577;-61
2021/11/03 01:08:02;;;;;;;8.60;7.82;;;15.80;86.90;;;;;;4206433;28;20059;-61
2021/11/03 01:10:24;;;;;;;7.35;6.75;;;15.70;86.70;;;;;;4208786;28;20414;-61
2021/11/03 01:12:47;;;;;;;7.97;7.25;;;15.70;87.00;;;;;;4207319;28;20051;-61
2021/11/03 01:15:12;;;;;;;7.30;6.70;;;15.70;87.10;;;;;;4209078;28;20048;-61
2021/11/03 01:17:35;;;;;;;7.55;6.95;;;15.70;87.00;;;;;;4227190;28;20047;-61
2021/11/03 01:19:58;;;;;;;7.25;6.65;;;15.70;86.80;;;;;;4211694;28;20045;-61
2021/11/03 01:22:20;;;;;;;7.18;6.57;;;15.80;87.00;;;;;;4227145;28;20546;-61
2021/11/03 01:24:42;;;;;;;7.82;7.03;;;15.70;87.00;;;;;;4227157;28;20409;-61
2021/11/03 01:27:05;;;;;;;7.28;6.68;;;15.70;88.00;;;;;;4211619;28;20068;-61
2021/11/03 01:29:27;;;;;;;7.20;6.55;;;15.70;87.00;;;;;;4208946;28;20548;-61
2021/11/03 01:31:49;;;;;;;7.07;6.47;;;15.70;87.10;;;;;;4210429;28;20048;-61
2021/11/03 01:34:11;;;;;;;7.28;6.57;;;15.70;87.30;;;;;;4194518;28;20143;-60
2021/11/03 01:36:36;;;;;;;7.72;6.30;;;15.70;88.10;;;;;;4194652;28;20051;-61
2021/11/03 01:38:58;;;;;;;7.13;6.53;;;15.70;87.20;;;;;;4194604;28;20504;-61
2021/11/03 01:41:21;;;;;;;9.30;6.35;;;15.70;87.20;;;;;;4207543;28;20788;-61
2021/11/03 01:43:47;;;;;;;6.95;6.40;;;15.70;87.10;;;;;;4209126;28;20086;-61
2021/11/03 01:46:20;;;;;;;6.38;5.88;;;15.70;87.30;;;;;;4211244;28;20052;-61
2021/11/03 01:48:49;;;;;;;6.55;5.95;;;15.70;87.70;;;;;;4211446;28;20132;-61
2021/11/03 01:51:15;;;;;;;5.97;5.57;;;15.70;87.40;;;;;;4226591;28;20479;-61
2021/11/03 01:53:39;;;;;;;6.63;6.03;;;15.60;87.40;;;;;;4208692;28;20051;-61
2021/11/03 01:56:05;;;;;;;9.80;6.32;;;15.70;87.50;;;;;;4209617;28;20044;-61
2021/11/03 01:58:37;;;;;;;7.47;6.75;;;15.70;87.60;;;;;;4207265;28;20048;-61
2021/11/03 02:01:00;;;;;;;6.57;6.07;;;15.70;87.50;;;;;;4194325;28;20451;-61
2021/11/03 02:03:26;;;;;;;6.70;6.10;;;15.60;87.60;;;;;;4194509;28;20476;-60
2021/11/03 02:05:52;;;;;;;6.85;6.25;;;15.60;87.50;;;;;;4226378;28;20063;-61
2021/11/03 02:08:14;;;;;;;6.78;6.07;;;15.60;87.50;;;;;;4206031;28;20060;-61
2021/11/03 02:10:38;;;;;;;7.35;6.28;;;15.60;87.80;;;;;;4209667;28;20543;-61
2021/11/03 02:13:01;;;;;;;6.28;5.68;;;15.60;87.70;;;;;;4208189;28;20040;-61
2021/11/03 02:15:24;;;;;;;7.35;6.43;;;15.60;87.70;;;;;;4208335;28;20056;-61
2021/11/03 02:17:47;;;;;;;5.75;5.35;;;15.60;87.70;;;;;;4208735;28;20131;-61
2021/11/03 02:20:12;;;;;;;6.65;6.15;;;15.60;87.70;;;;;;4226429;28;20044;-61
2021/11/03 02:22:43;;;;;;;7.07;5.63;;;15.60;87.80;;;;;;4238806;27;20134;-61
2021/11/03 02:25:08;;;;;;;5.30;4.90;;;15.60;87.60;;;;;;4210070;28;20100;-61
2021/11/03 02:27:33;;;;;;;6.68;5.03;;;15.60;88.00;;;;;;4210734;28;20082;-61
2021/11/03 02:29:55;;;;;;;4.80;4.50;;;15.60;87.90;;;;;;4210825;28;20047;-61
2021/11/03 02:32:21;;;;;;;5.22;4.82;;;15.60;88.10;;;;;;4225550;28;20508;-61
2021/11/03 02:34:44;;;;;;;5.40;4.88;;;15.50;87.70;;;;;;4210474;28;20113;-61
2021/11/03 02:37:35;;;;;;;5.00;4.60;;;15.60;88.10;;;;;;4226052;28;20082;-61
2021/11/03 02:40:01;;;;;;;4.90;4.50;;;15.50;87.40;;;;;;4206999;28;20070;-60
2021/11/03 02:42:27;;;;;;;4.35;3.95;;;15.50;88.20;;;;;;4231751;27;20051;-61
2021/11/03 02:44:50;;;;;;;5.53;5.03;;;15.50;88.00;;;;;;4208913;28;20040;-60
2021/11/03 02:47:11;;;;;;;4.78;4.40;;;15.50;88.10;;;;;;4209010;28;20101;-61
2021/11/03 02:49:37;;;;;;;4.93;4.53;;;15.50;88.20;;;;;;4208885;28;20044;-61
2021/11/03 02:51:59;;;;;;;5.03;4.63;;;15.50;88.10;;;;;;4206229;28;20044;-61
2021/11/03 02:54:23;;;;;;;4.20;3.80;;;15.50;88.20;;;;;;4209913;28;20559;-61
2021/11/03 02:56:47;;;;;;;4.43;4.03;;;15.50;88.10;;;;;;4210018;28;20040;-61
2021/11/03 02:59:13;;;;;;;4.38;4.00;;;15.50;88.00;;;;;;4209560;28;20060;-61
2021/11/03 03:01:37;;;;;;;3.60;3.40;;;15.50;88.10;;;;;;4225537;28;20138;-61
2021/11/03 03:04:00;;;;;;;4.38;4.07;;;15.50;88.00;;;;;;4225398;28;20474;-61
2021/11/03 03:06:25;;;;;;;3.88;3.60;;;15.50;88.20;;;;;;4225013;28;20772;-61
2021/11/03 03:08:49;;;;;;;4.07;3.78;;;15.50;88.10;;;;;;4209535;28;20101;-61
2021/11/03 03:11:11;;;;;;;4.18;3.85;;;15.50;89.30;;;;;;4210173;28;20052;-61
2021/11/03 03:13:34;;;;;;;4.07;3.78;;;15.60;89.30;;;;;;4207416;28;20046;-61
2021/11/03 03:15:58;;;;;;;3.67;3.38;;;15.70;89.20;;;;;;4192784;28;20059;-61
2021/11/03 03:18:20;;;;;;;3.42;3.13;;;15.80;88.80;;;;;;4193026;28;20505;-61
2021/11/03 03:20:42;;;;;;;3.78;3.47;;;15.80;88.60;;;;;;4197568;28;20446;-61
2021/11/03 03:23:16;;;;;;;4.97;3.50;;;15.90;88.30;;;;;;4209049;28;20048;-60
2021/11/03 03:25:40;;;;;;;3.15;2.85;;;15.90;88.10;;;;;;4224654;28;20046;-61
2021/11/03 03:28:03;;;;;;;4.18;3.17;;;15.90;87.90;;;;;;4208571;28;20103;-61
2021/11/03 03:30:25;;;;;;;3.40;3.20;;;16.00;87.90;;;;;;4209692;28;20047;-61
2021/11/03 03:32:49;;;;;;;3.80;3.50;;;15.90;87.60;;;;;;4223956;28;20058;-61
2021/11/03 03:35:11;;;;;;;3.67;3.38;;;16.00;87.80;;;;;;4209551;28;20113;-61
2021/11/03 03:37:33;;;;;;;3.47;3.28;;;15.90;87.70;;;;;;4209007;28;20048;-61
2021/11/03 03:39:56;;;;;;;3.75;3.30;;;16.00;87.80;;;;;;4193001;28;20494;-61
2021/11/03 03:42:19;;;;;;;3.20;3.00;;;15.90;88.50;;;;;;4208249;28;20387;-61
2021/11/03 03:44:43;;;;;;;3.42;3.13;;;15.90;87.60;;;;;;4193120;28;20049;-61
2021/11/03 03:47:07;;;;;;;3.63;3.30;;;15.90;87.60;;;;;;4208106;28;20559;-61
2021/11/03 03:49:31;;;;;;;2.97;2.60;;;15.90;87.70;;;;;;4223558;28;20070;-61
2021/11/03 03:51:53;;;;;;;4.55;3.33;;;15.90;87.50;;;;;;4218959;28;20074;-61
2021/11/03 03:54:15;;;;;;;5.35;2.90;;;15.80;87.50;;;;;;4209340;28;20133;-61
2021/11/03 03:56:38;;;;;;;4.10;3.08;;;15.80;87.60;;;;;;4207469;28;20058;-61
2021/11/03 03:59:00;;;;;;;2.47;2.38;;;15.80;87.60;;;;;;4206988;28;20131;-61
2021/11/03 04:01:24;;;;;;;2.63;2.53;;;15.80;87.70;;;;;;4208450;28;20422;-60
2021/11/03 04:03:49;;;;;;;2.22;2.13;;;15.80;87.60;;;;;;4208905;28;20493;-61
2021/11/03 04:06:14;;;;;;;4.15;2.97;;;15.70;87.60;;;;;;4206576;28;20051;-60
2021/11/03 04:08:37;;;;;;;2.70;2.50;;;15.70;87.50;;;;;;4208923;28;20056;-61
2021/11/03 04:11:00;;;;;;;4.30;2.47;;;15.70;87.80;;;;;;4209395;28;20113;-61
2021/11/03 04:13:24;;;;;;;2.20;2.10;;;15.70;88.10;;;;;;4191765;28;20051;-61
2021/11/03 04:15:46;;;;;;;2.45;2.33;;;15.80;88.60;;;;;;4213052;28;20490;-61
2021/11/03 04:18:08;;;;;;;2.95;2.70;;;15.90;88.40;;;;;;4205172;28;20055;-61
2021/11/03 04:20:30;;;;;;;2.60;2.45;;;16.10;87.90;;;;;;4209176;28;21169;-60
2021/11/03 04:22:53;;;;;;;2.63;2.42;;;16.10;87.30;;;;;;4224209;28;20056;-60
2021/11/03 04:25:17;;;;;;;2.83;2.60;;;16.20;86.80;;;;;;4223826;28;20485;-61
2021/11/03 04:27:41;;;;;;;2.42;2.22;;;16.20;86.70;;;;;;4209267;28;20488;-60
2021/11/03 04:30:05;;;;;;;2.75;2.55;;;16.30;86.60;;;;;;4209338;28;20054;-60
2021/11/03 04:32:27;;;;;;;2.75;2.40;;;16.30;86.40;;;;;;4210127;28;20204;-61
2021/11/03 04:34:49;;;;;;;2.78;2.60;;;16.30;86.40;;;;;;4207470;28;20044;-60
2021/11/03 04:37:11;;;;;;;2.95;2.50;;;16.20;86.20;;;;;;4206650;28;20044;-61
2021/11/03 04:39:36;;;;;;;2.70;2.50;;;16.20;86.10;;;;;;4207855;28;20055;-60
2021/11/03 04:41:59;;;;;;;6.03;2.67;;;16.20;86.80;;;;;;4224149;28;20458;-60
2021/11/03 04:44:21;;;;;;;2.70;2.55;;;16.20;86.20;;;;;;4208865;28;20047;-61
2021/11/03 04:46:44;;;;;;;2.45;2.35;;;16.20;86.30;;;;;;4208845;28;20513;-61
2021/11/03 04:49:08;;;;;;;2.63;2.25;;;16.10;86.30;;;;;;4210865;28;20054;-60
2021/11/03 04:51:30;;;;;;;2.42;2.20;;;16.10;87.40;;;;;;4227248;28;20051;-61
2021/11/03 04:53:52;;;;;;;3.13;2.80;;;16.10;86.60;;;;;;4212248;28;20043;-61
2021/11/03 04:56:19;;;;;;;2.55;2.35;;;16.10;86.50;;;;;;4211955;28;20052;-61
2021/11/03 04:58:43;;;;;;;2.53;2.40;;;16.00;86.40;;;;;;4212007;28;20118;-60
2021/11/03 05:01:05;;;;;;;2.30;2.20;;;16.00;86.60;;;;;;4211954;28;20476;-61
2021/11/03 05:03:31;;;;;;;2.15;2.05;;;16.00;87.40;;;;;;4212104;28;20094;-61
2021/11/03 05:05:56;;;;;;;2.60;2.47;;;16.00;86.50;;;;;;4209114;28;20048;-61
2021/11/03 05:08:20;;;;;;;2.45;2.35;;;15.90;86.50;;;;;;4209755;28;20059;-60
2021/11/03 05:10:42;;;;;;;2.75;2.55;;;15.90;86.80;;;;;;4194682;28;20487;-61
2021/11/03 05:13:05;;;;;;;2.20;2.10;;;15.90;86.90;;;;;;4209605;28;20044;-61
2021/11/03 05:15:28;;;;;;;2.75;2.55;;;15.90;86.70;;;;;;4211377;28;20389;-61
2021/11/03 05:17:51;;;;;;;2.40;2.30;;;15.80;86.80;;;;;;4211808;28;20068;-61
2021/11/03 05:20:16;;;;;;;2.58;2.38;;;15.80;86.80;;;;;;4211881;28;20044;-60
2021/11/03 05:22:39;;;;;;;2.47;2.30;;;15.80;86.90;;;;;;4211975;28;20106;-60
2021/11/03 05:25:01;;;;;;;2.38;2.20;;;15.90;87.50;;;;;;4227162;28;20541;-61
2021/11/03 05:27:23;;;;;;;3.22;2.45;;;15.90;87.50;;;;;;4227299;28;20420;-61
2021/11/03 05:29:47;;;;;;;3.67;3.33;;;16.10;87.10;;;;;;4226919;28;20062;-61
2021/11/03 05:32:09;;;;;;;5.03;2.95;;;16.10;86.50;;;;;;4210225;28;20137;-60
2021/11/03 05:34:31;;;;;;;3.13;2.83;;;16.20;86.20;;;;;;4217097;28;20050;-61
2021/11/03 05:36:53;;;;;;;3.25;3.05;;;16.20;85.90;;;;;;4227206;28;20519;-61
2021/11/03 05:39:17;;;;;;;3.58;3.33;;;16.20;85.60;;;;;;4226942;28;20062;-61
2021/11/03 05:41:40;;;;;;;3.50;3.08;;;16.30;85.40;;;;;;4227052;28;22110;-61
2021/11/03 05:44:02;;;;;;;3.53;3.15;;;16.20;85.20;;;;;;4209660;28;20069;-61
2021/11/03 05:46:32;;;;;;;3.20;2.97;;;16.20;85.20;;;;;;4226628;28;20751;-61
2021/11/03 05:48:59;;;;;;;3.42;3.08;;;16.20;84.90;;;;;;4226101;28;20047;-61
2021/11/03 05:51:22;;;;;;;3.10;2.88;;;16.20;84.90;;;;;;4226746;28;20051;-61
2021/11/03 05:53:44;;;;;;;4.82;2.92;;;16.20;85.30;;;;;;4226539;28;20063;-61
2021/11/03 05:56:07;;;;;;;3.13;3.03;;;16.10;85.10;;;;;;4226780;28;20054;-61
2021/11/03 05:58:31;;;;;;;3.20;2.92;;;16.10;85.10;;;;;;4226817;28;20074;-61
2021/11/03 06:00:53;;;;;;;3.45;2.95;;;16.10;85.30;;;;;;4225787;28;20573;-61
2021/11/03 06:03:17;;;;;;;2.88;2.67;;;16.10;85.50;;;;;;4226391;28;20580;-61
2021/11/03 06:05:39;;;;;;;3.80;3.17;;;16.00;85.30;;;;;;4226359;28;20050;-61
2021/11/03 06:08:03;;;;;;;3.42;3.22;;;16.00;85.60;;;;;;4226741;28;20047;-61
2021/11/03 06:10:30;;;;;;;4.63;3.28;;;16.00;85.90;;;;;;4226423;28;20040;-60
2021/11/03 06:12:53;;;;;;;3.28;3.08;;;16.10;85.70;;;;;;4225680;28;20055;-60
2021/11/03 06:15:16;;;;;;;3.33;3.03;;;16.10;85.70;;;;;;4225648;28;20059;-61
2021/11/03 06:17:38;;;;;;;3.75;3.42;;;16.10;85.40;;;;;;4226321;28;20489;-61
2021/11/03 06:20:01;;;;;;;3.58;3.28;;;16.10;85.30;;;;;;4226125;28;20058;-61
2021/11/03 06:22:23;;;;;;;3.83;3.53;;;16.10;84.90;;;;;;4226314;28;20039;-61
2021/11/03 06:24:47;;;;;;;4.13;3.83;;;16.10;85.10;;;;;;4226164;28;20051;-60
2021/11/03 06:27:10;;;;;;;4.47;4.07;;;16.10;85.10;;;;;;4225602;28;20054;-60
2021/11/03 06:29:32;;;;;;;4.70;4.35;;;16.10;85.30;;;;;;4226100;28;20091;-61
2021/11/03 06:31:54;;;;;;;4.72;4.38;;;16.10;85.40;;;;;;4225850;28;20512;-61
2021/11/03 06:34:16;;;;;;;4.07;3.78;;;16.20;85.30;;;;;;4226027;28;20417;-60
2021/11/03 06:36:39;;;;;;;5.35;4.78;;;16.20;85.10;;;;;;4226270;28;20441;-60
2021/11/03 06:39:01;;;;;;;4.85;4.28;;;16.20;84.90;;;;;;4209443;28;20048;-59
2021/11/03 06:41:27;;;;;;;5.95;4.85;;;16.10;85.00;;;;;;4225822;28;20048;-59
2021/11/03 06:43:50;;;;;;;4.47;4.07;;;16.20;85.10;;;;;;4225289;28;20074;-59
2021/11/03 06:46:12;;;;;;;4.85;4.20;;;16.20;85.30;;;;;;4209671;28;20043;-59
2021/11/03 06:48:35;;;;;;;5.07;4.63;;;16.30;85.20;;;;;;4225093;28;20048;-59
2021/11/03 06:50:57;;;;;;;4.72;4.43;;;16.30;85.20;;;;;;4225838;28;20040;-58
2021/11/03 06:53:25;;;;;;;5.28;4.88;;;16.30;85.20;;;;;;4225762;28;20067;-59
2021/11/03 06:55:48;;;;;;;5.57;5.00;;;16.20;85.00;;;;;;4225970;28;20040;-59
2021/11/03 06:58:10;;;;;;;4.72;4.32;;;16.20;85.20;;;;;;4210344;28;20048;-57
2021/11/03 07:00:35;;;;;;;7.05;4.85;;;16.20;85.10;;;;;;4225975;28;20566;-59
2021/11/03 07:02:58;;;;;;;4.95;4.55;;;16.20;85.20;;;;;;4218069;28;20098;-59
2021/11/03 07:05:20;;;;;;;4.72;4.43;;;16.20;85.20;;;;;;4225479;28;20052;-59
2021/11/03 07:07:46;;;;;;;5.30;4.85;;;16.20;85.30;;;;;;4225526;28;20469;-59
2021/11/03 07:10:13;;;;;;;5.25;4.60;;;16.20;85.40;;;;;;4225064;28;20048;-58
2021/11/03 07:12:35;;;;;;;5.65;5.13;;;16.20;85.20;;;;;;4225274;28;20607;-59
2021/11/03 07:14:58;;;;;;;6.05;5.55;;;16.10;85.70;;;;;;4222499;28;21797;-59
2021/11/03 07:17:20;;;;;;;5.75;5.35;;;16.10;85.70;;;;;;4224547;28;20134;-59
2021/11/03 07:19:46;;;;;;;6.57;6.07;;;16.10;86.00;;;;;;4216297;28;20054;-59
2021/11/03 07:22:09;;;;;;;6.25;5.75;;;16.00;85.90;;;;;;4208271;28;20055;-59
2021/11/03 07:24:31;;;;;;;5.93;5.47;;;16.00;85.90;;;;;;4225031;28;20122;-60
2021/11/03 07:26:54;;;;;;;6.22;5.72;;;16.00;86.10;;;;;;4224424;28;20058;-59
2021/11/03 07:29:16;;;;;;;6.90;6.38;;;16.00;86.10;;;;;;4225362;28;20051;-58
2021/11/03 07:31:39;;;;;;;7.63;6.93;;;15.90;86.20;;;;;;4224915;28;20493;-59
2021/11/03 07:34:01;;;;;;;6.55;5.30;;;15.90;86.20;;;;;;4225322;28;20096;-59
2021/11/03 07:36:23;;;;;;;8.07;7.28;;;15.90;86.70;;;;;;4225241;28;20061;-58
2021/11/03 07:38:45;;;;;;;7.78;7.18;;;15.90;86.40;;;;;;4224924;28;20051;-59
2021/11/03 07:41:25;;;;;;;9.48;7.82;;;15.80;86.50;;;;;;4218306;28;20105;-57
2021/11/03 07:43:53;;;;;;;7.43;6.68;;;15.80;86.60;;;;;;4208245;28;20134;-59
2021/11/03 07:46:15;;;;;;;10.25;7.28;;;15.80;86.60;;;;;;4208005;28;20478;-59
2021/11/03 07:48:37;;;;;;;7.53;6.93;;;15.80;86.70;;;;;;4207899;28;20055;-58
2021/11/03 07:51:04;;;;;;;14.82;8.00;;;15.70;86.60;;;;;;4213916;28;20078;-59
2021/11/03 07:53:27;;;;;;;16.23;7.03;;;15.70;86.30;;;;;;4224753;28;20452;-58
2021/11/03 07:55:53;;;;;;;18.88;7.28;;;15.70;86.40;;;;;;4224426;28;20058;-58
2021/11/03 07:58:17;;;;;;;13.05;7.05;;;15.70;86.20;;;;;;4224148;28;20084;-59
2021/11/03 08:00:44;;;;;;;22.98;7.65;;;15.60;87.40;;;;;;4206170;28;20043;-59
2021/11/03 08:03:06;;;;;;;21.30;7.47;;;15.70;86.50;;;;;;4224803;28;20493;-59
2021/11/03 08:05:30;;;;;;;17.67;7.93;;;15.70;87.50;;;;;;4224507;28;20043;-58
2021/11/03 08:07:52;;;;;;;26.00;7.68;;;15.70;86.30;;;;;;4209327;28;20134;-59
2021/11/03 08:10:16;;;;;;;22.60;8.32;;;15.70;86.20;;;;;;4224364;28;20047;-58
2021/11/03 08:12:40;;;;;;;16.98;7.57;;;15.80;86.30;;;;;;4208317;28;20048;-59
2021/11/03 08:15:03;;;;;;;16.42;8.35;;;15.80;86.30;;;;;;4207833;28;20135;-58
2021/11/03 08:17:27;;;;;;;21.17;8.02;;;15.80;86.20;;;;;;4223958;28;20062;-59
2021/11/03 08:19:56;;;;;;;17.10;7.78;;;15.80;86.10;;;;;;4224586;28;20459;-59
2021/11/03 08:22:23;;;;;;;31.92;8.43;;;15.80;85.90;;;;;;4223763;28;20136;-59
2021/11/03 08:24:45;;;;;;;19.35;7.63;;;15.80;86.00;;;;;;4223583;28;20055;-59
2021/11/03 08:27:08;;;;;;;20.95;7.78;;;15.80;86.20;;;;;;4224038;28;20432;-59
2021/11/03 08:29:30;;;;;;;23.25;8.02;;;15.80;86.10;;;;;;4224139;28;20051;-59
2021/11/03 08:31:55;;;;;;;19.88;7.70;;;15.80;86.00;;;;;;4224438;28;20826;-59
2021/11/03 08:34:20;;;;;;;26.33;8.40;;;15.80;86.20;;;;;;4223972;28;20061;-59
2021/11/03 08:36:42;;;;;;;23.70;8.65;;;15.80;85.80;;;;;;4223983;28;20442;-59
2021/11/03 08:39:07;;;;;;;27.60;8.23;;;15.80;85.60;;;;;;4223907;28;20097;-59
2021/11/03 08:41:30;;;;;;;14.93;8.32;;;15.80;85.60;;;;;;4224515;28;20059;-59
2021/11/03 08:43:53;;;;;;;25.50;8.35;;;15.90;85.80;;;;;;4224543;28;20055;-58
2021/11/03 08:46:17;;;;;;;20.00;7.20;;;15.90;85.70;;;;;;4224313;28;20051;-58
2021/11/03 08:48:43;;;;;;;16.55;8.18;;;15.90;85.60;;;;;;4223804;28;20077;-58
2021/11/03 08:51:06;;;;;;;13.75;8.45;;;15.90;85.60;;;;;;4208343;28;20139;-59
2021/11/03 08:53:28;;;;;;;15.10;8.18;;;15.90;85.50;;;;;;4215430;28;20448;-58
2021/11/03 08:55:52;;;;;;;15.38;7.97;;;15.90;85.70;;;;;;4206352;28;20464;-58
2021/11/03 08:58:16;;;;;;;21.35;7.95;;;15.90;85.70;;;;;;4192201;28;20132;-58
2021/11/03 09:00:39;;;;;;;24.00;7.72;;;15.90;85.70;;;;;;4206656;28;20162;-57
2021/11/03 09:03:02;;;;;;;25.92;8.25;;;15.90;85.80;;;;;;4207419;28;20054;-58
2021/11/03 09:05:26;;;;;;;22.05;7.57;;;15.90;86.00;;;;;;4207505;28;20418;-59
2021/11/03 09:07:49;;;;;;;38.38;8.07;;;15.80;86.00;;;;;;4207016;28;20044;-58
2021/11/03 09:10:13;;;;;;;22.25;8.27;;;15.80;86.00;;;;;;4223503;28;20055;-58
2021/11/03 09:12:35;;;;;;;18.08;7.25;;;15.80;86.00;;;;;;4224092;28;20780;-59
2021/11/03 09:14:58;;;;;;;10.13;7.88;;;15.80;86.10;;;;;;4224117;28;20134;-59
2021/11/03 09:17:21;;;;;;;15.25;7.18;;;15.80;86.10;;;;;;4218267;28;20040;-58
2021/11/03 09:19:43;;;;;;;13.55;7.40;;;15.80;86.30;;;;;;4224152;28;20043;-58
2021/11/03 09:22:06;;;;;;;21.95;8.00;;;15.80;85.90;;;;;;4192103;28;20110;-57
2021/11/03 09:24:30;;;;;;;8.98;8.00;;;15.80;85.50;;;;;;4190449;28;20045;-58
2021/11/03 09:26:52;;;;;;;17.85;7.93;;;15.80;85.60;;;;;;4190565;28;20053;-58
2021/11/03 09:29:15;;;;;;;19.38;7.22;;;15.90;85.60;;;;;;4212985;28;20051;-58
2021/11/03 09:31:37;;;;;;;22.60;8.52;;;15.90;85.90;;;;;;4208413;28;20097;-59
2021/11/03 09:34:00;;;;;;;23.27;7.47;;;15.90;85.90;;;;;;4206759;28;20632;-58
2021/11/03 09:36:23;;;;;;;29.08;7.97;;;15.90;85.60;;;;;;4226262;28;20071;-57
2021/11/03 09:38:46;;;;;;;17.95;7.45;;;15.90;85.50;;;;;;4227168;28;20488;-58
2021/11/03 09:41:19;;;;;;;16.33;8.07;;;15.90;85.60;;;;;;4226205;28;20406;-57
2021/11/03 09:43:44;;;;;;;10.57;7.82;;;15.90;85.40;;;;;;4226777;28;20735;-58
2021/11/03 09:46:19;;;;;;;16.73;7.78;;;15.90;85.70;;;;;;4209634;28;20044;-59
2021/11/03 09:48:41;;;;;;;30.30;8.50;;;15.80;85.20;;;;;;4210034;28;20047;-59
2021/11/03 09:51:13;;;;;;;21.33;8.57;;;15.80;85.90;;;;;;4226609;28;20048;-59
2021/11/03 09:53:47;;;;;;;9.43;7.90;;;15.80;85.90;;;;;;4226769;28;20043;-59
2021/11/03 09:56:14;;;;;;;25.90;7.93;;;15.80;85.70;;;;;;4226441;28;20075;-58
2021/11/03 09:59:09;;;;;;;19.60;8.70;;;15.80;85.80;;;;;;4226629;28;20047;-59
2021/11/03 10:01:44;;;;;;;22.35;8.50;;;15.80;85.40;;;;;;4193444;28;20048;-58
2021/11/03 10:04:29;;;;;;;12.10;7.40;;;15.80;85.90;;;;;;4205896;28;20494;-59
2021/11/03 10:06:57;;;;;;;17.48;8.90;;;15.70;86.10;;;;;;4193100;28;20047;-59
2021/11/03 10:09:20;;;;;;;15.93;8.15;;;15.70;86.50;;;;;;4198433;28;20048;-59
2021/11/03 10:11:47;;;;;;;22.33;9.25;;;15.70;87.30;;;;;;4194797;28;20506;-60
2021/11/03 10:14:10;;;;;;;16.42;8.98;;;15.70;86.00;;;;;;4208927;28;20105;-58
2021/11/03 10:16:36;;;;;;;15.75;8.70;;;15.70;86.10;;;;;;4209315;28;20059;-58
2021/11/03 10:19:04;;;;;;;10.38;7.97;;;15.80;85.90;;;;;;4209362;28;20485;-58
2021/11/03 10:21:35;;;;;;;21.42;8.88;;;15.80;86.00;;;;;;4209369;28;20067;-59
2021/11/03 10:24:00;;;;;;;10.60;7.90;;;15.80;85.90;;;;;;4224922;28;20047;-60
2021/11/03 10:26:24;;;;;;;11.45;8.43;;;15.80;85.80;;;;;;4220374;28;20134;-59
2021/11/03 10:28:52;;;;;;;9.57;8.23;;;15.80;85.70;;;;;;4210504;28;20044;-59
2021/11/03 10:31:25;;;;;;;11.45;9.13;;;15.80;85.50;;;;;;4208884;28;20702;-59
2021/11/03 10:33:49;;;;;;;12.13;8.93;;;15.80;85.10;;;;;;4208951;28;20051;-59
2021/11/03 10:36:16;;;;;;;8.75;7.88;;;15.80;85.60;;;;;;4210365;28;20059;-59
2021/11/03 10:38:42;;;;;;;10.05;9.13;;;15.80;85.70;;;;;;4208983;28;20055;-60
2021/11/03 10:41:06;;;;;;;9.63;8.73;;;15.80;85.70;;;;;;4208848;28;21578;-57
2021/11/03 10:43:33;;;;;;;17.00;9.85;;;15.80;86.30;;;;;;4226391;28;20112;-59
2021/11/03 10:46:05;;;;;;;10.05;9.10;;;15.80;86.00;;;;;;4224997;28;20052;-59
2021/11/03 10:48:28;;;;;;;11.60;10.43;;;15.80;85.70;;;;;;4225722;28;20044;-59
2021/11/03 10:51:17;;;;;;;10.80;9.48;;;15.80;86.20;;;;;;4225963;28;20051;-59
2021/11/03 10:53:50;;;;;;;10.40;9.40;;;15.70;86.60;;;;;;4215362;28;20055;-57
2021/11/03 10:56:19;;;;;;;11.02;9.82;;;15.70;86.20;;;;;;4225541;28;20794;-60
2021/11/03 10:58:58;;;;;;;10.25;9.35;;;15.70;86.20;;;;;;4225308;28;20100;-58
2021/11/03 11:01:30;;;;;;;13.57;11.07;;;15.70;86.40;;;;;;4225770;28;20566;-57
2021/11/03 11:03:58;;;;;;;11.73;10.63;;;15.70;86.40;;;;;;4225206;28;20039;-60
2021/11/03 11:06:24;;;;;;;11.95;10.90;;;15.60;86.60;;;;;;4193324;28;20044;-59
2021/11/03 11:08:51;;;;;;;13.57;11.20;;;15.60;86.80;;;;;;4200609;28;20044;-59
2021/11/03 11:11:18;;;;;;;12.25;11.05;;;15.60;86.70;;;;;;4208457;28;20063;-58
2021/11/03 11:13:49;;;;;;;13.13;11.75;;;15.60;86.80;;;;;;4208915;28;20048;-59
2021/11/03 11:16:26;;;;;;;13.75;12.02;;;15.60;86.80;;;;;;4224045;28;20051;-58
2021/11/03 11:19:00;;;;;;;12.38;11.13;;;15.60;86.90;;;;;;4224841;28;20064;-58
2021/11/03 11:21:37;;;;;;;13.30;12.02;;;15.60;86.90;;;;;;4209159;28;20081;-58
2021/11/03 11:24:02;;;;;;;16.85;13.55;;;15.50;86.80;;;;;;4224801;28;20059;-59
2021/11/03 11:26:30;;;;;;;13.57;12.18;;;15.50;87.10;;;;;;4211629;28;20047;-59
2021/11/03 11:28:59;;;;;;;12.82;11.30;;;15.50;86.90;;;;;;4225083;28;20100;-57
2021/11/03 11:31:29;;;;;;;14.77;12.45;;;15.50;87.10;;;;;;4224669;28;20489;-59
2021/11/03 11:34:00;;;;;;;13.95;12.40;;;15.50;87.30;;;;;;4225208;28;20053;-59
2021/11/03 11:36:34;;;;;;;15.18;13.68;;;15.50;88.30;;;;;;4224428;28;20481;-59
2021/11/03 11:39:10;;;;;;;15.02;13.27;;;15.50;87.50;;;;;;4224951;28;20500;-58
2021/11/03 11:41:36;;;;;;;14.55;13.05;;;15.50;87.50;;;;;;4225051;28;20130;-56
2021/11/03 11:44:05;;;;;;;14.52;13.13;;;15.40;87.80;;;;;;4208567;28;20482;-58
2021/11/03 11:46:30;;;;;;;13.80;12.40;;;15.40;88.20;;;;;;4207800;28;20051;-59
2021/11/03 11:48:57;;;;;;;14.98;13.48;;;15.50;87.20;;;;;;4212018;28;20192;-59
2021/11/03 11:51:26;;;;;;;14.23;12.75;;;15.50;87.10;;;;;;4224228;28;20039;-59
2021/11/03 11:54:21;;;;;;;15.25;13.70;;;15.60;86.80;;;;;;4215295;28;20048;-60
2021/11/03 11:56:43;;;;;;;15.63;13.95;;;15.60;86.60;;;;;;4208243;28;20397;-59
2021/11/03 11:59:07;;;;;;;15.45;13.90;;;15.70;87.40;;;;;;4207721;28;20048;-59
2021/11/03 12:01:41;;;;;;;15.07;13.57;;;15.60;87.20;;;;;;4208801;28;20117;-60
2021/11/03 12:04:37;;;;;;;14.32;12.85;;;15.60;86.80;;;;;;4206837;28;20048;-59
2021/11/03 12:07:27;;;;;;;12.38;11.18;;;15.70;87.10;;;;;;4206788;28;20147;-60
2021/11/03 12:10:16;;;;;;;15.85;12.60;;;15.70;87.20;;;;;;4208652;28;20054;-60
2021/11/03 12:13:06;;;;;;;15.77;14.18;;;15.70;86.40;;;;;;4223191;28;20055;-60
2021/11/03 12:16:01;;;;;;;16.83;14.38;;;15.70;85.80;;;;;;4216922;27;20063;-59
2021/11/03 12:18:42;;;;;;;15.30;12.98;;;15.60;85.60;;;;;;4148064;28;20046;-60
2021/11/03 12:21:15;;;;;;;15.88;13.77;;;15.60;85.40;;;;;;4207600;28;20747;-60
2021/11/03 12:23:45;;;;;;;14.85;13.40;;;15.60;85.10;;;;;;4207623;28;20052;-60
2021/11/03 12:26:45;;;;;;;15.07;13.57;;;15.60;85.00;;;;;;4208015;28;20059;-60
2021/11/03 12:29:34;;;;;;;14.25;12.77;;;15.60;84.70;;;;;;4191854;28;20064;-60
2021/11/03 12:32:00;;;;;;;14.82;13.27;;;15.50;85.10;;;;;;4206313;28;20044;-60